Time,TemperatureF,DewpointF,PressureIn,WindDirection,WindDirectionDegrees,WindSpeedMPH,WindSpeedGustMPH,Humidity,HourlyPrecipIn,Conditions,Clouds,dailyrainin,SoftwareType,DateUTC
2013-07-11 00:00:00,65.8,65.8,29.95,WSW,248,2.0,-999.0,100,0.00,,,0.00,Wunderground v.1.15,2013-07-11 04:00:00,
2013-07-11 00:05:00,65.8,65.8,29.95,WSW,248,2.0,-999.0,100,0.00,,,0.00,Wunderground v.1.15,2013-07-11 04:05:00,
2013-07-11 00:10:00,65.8,65.8,29.95,SW,225,1.0,-999.0,100,0.00,,,0.00,Wunderground v.1.15,2013-07-11 04:10:00,
2013-07-11 00:15:00,65.9,65.9,29.95,WSW,248,0.0,-999.0,100,0.00,,,0.00,Wunderground v.1.15,2013-07-11 04:15:00,
2013-07-11 00:20:00,65.9,65.6,29.95,SW,225,1.0,-999.0,99,0.00,,,0.00,Wunderground v.1.15,2013-07-11 04:20:00,
2013-07-11 00:25:00,66.0,65.7,29.95,SW,225,1.0,-999.0,99,0.00,,,0.00,Wunderground v.1.15,2013-07-11 04:25:00,
2013-07-11 00:30:00,66.0,65.7,29.95,WSW,248,1.0,-999.0,99,0.00,,,0.00,Wunderground v.1.15,2013-07-11 04:30:00,
2013-07-11 00:35:00,65.9,65.6,29.95,SW,225,2.0,-999.0,99,0.00,,,0.00,Wunderground v.1.15,2013-07-11 04:35:00,
2013-07-11 00:40:00,66.0,65.7,29.95,WSW,245,2.0,2.0,99,0.00,,,0.00,Wunderground v.1.15,2013-07-11 04:40:00,
2013-07-11 00:45:00,65.9,65.6,29.95,SW,225,2.0,2.0,99,0.00,,,0.00,Wunderground v.1.15,2013-07-11 04:45:00,
2013-07-11 00:50:00,65.9,65.6,29.95,WSW,242,2.0,2.0,99,0.00,,,0.00,Wunderground v.1.15,2013-07-11 04:50:00,
2013-07-11 01:00:00,65.9,65.6,29.95,WSW,249,2.0,2.0,99,0.00,,,0.00,Wunderground v.1.15,2013-07-11 05:00:00,
2013-07-11 01:10:00,66.0,65.7,29.95,West,259,1.0,1.0,99,0.00,,,0.00,Wunderground v.1.15,2013-07-11 05:10:00,
2013-07-11 01:15:00,65.8,65.5,29.95,WSW,250,1.0,1.0,99,0.00,,,0.00,Wunderground v.1.15,2013-07-11 05:15:00,
2013-07-11 01:20:00,65.7,65.4,29.94,SW,235,1.0,2.0,99,0.00,,,0.00,Wunderground v.1.15,2013-07-11 05:20:00,
2013-07-11 01:25:00,65.6,65.3,29.95,SW,224,2.0,2.0,99,0.00,,,0.00,Wunderground v.1.15,2013-07-11 05:25:00,
2013-07-11 01:35:00,65.4,65.1,29.95,SW,221,1.0,1.0,99,0.00,,,0.00,Wunderground v.1.15,2013-07-11 05:35:00,
2013-07-11 01:40:00,65.4,65.1,29.95,SW,228,2.0,2.0,99,0.00,,,0.00,Wunderground v.1.15,2013-07-11 05:40:00,
2013-07-11 01:45:00,65.3,65.0,29.95,WSW,241,1.0,2.0,99,0.00,,,0.00,Wunderground v.1.15,2013-07-11 05:45:00,
2013-07-11 01:50:00,65.2,64.9,29.95,SW,231,1.0,1.0,99,0.00,,,0.00,Wunderground v.1.15,2013-07-11 05:50:00,
2013-07-11 01:55:00,65.2,64.9,29.95,SW,230,0.0,1.0,99,0.00,,,0.00,Wunderground v.1.15,2013-07-11 05:55:00,
2013-07-11 02:00:00,65.1,64.8,29.95,SW,230,0.0,0.0,99,0.00,,,0.00,Wunderground v.1.15,2013-07-11 06:00:00,
2013-07-11 02:10:00,64.7,64.4,29.95,SW,229,0.0,0.0,99,0.00,,,0.00,Wunderground v.1.15,2013-07-11 06:10:00,
2013-07-11 02:15:00,64.5,64.2,29.95,SW,231,0.0,0.0,99,0.00,,,0.00,Wunderground v.1.15,2013-07-11 06:15:00,
2013-07-11 02:20:00,64.5,64.2,29.95,WSW,248,0.0,0.0,99,0.00,,,0.00,Wunderground v.1.15,2013-07-11 06:20:00,
2013-07-11 02:25:00,64.6,64.3,29.95,WSW,252,0.0,1.0,99,0.00,,,0.00,Wunderground v.1.15,2013-07-11 06:25:00,
2013-07-11 02:30:00,64.7,64.4,29.95,SW,236,1.0,1.0,99,0.00,,,0.00,Wunderground v.1.15,2013-07-11 06:30:00,
2013-07-11 02:35:00,64.8,64.5,29.95,SW,236,1.0,1.0,99,0.00,,,0.00,Wunderground v.1.15,2013-07-11 06:35:00,
2013-07-11 02:45:00,64.9,64.6,29.95,SW,231,0.0,1.0,99,0.00,,,0.00,Wunderground v.1.15,2013-07-11 06:45:00,
2013-07-11 02:50:00,64.8,64.5,29.95,SW,230,0.0,0.0,99,0.00,,,0.00,Wunderground v.1.15,2013-07-11 06:50:00,
2013-07-11 02:55:00,64.7,64.4,29.95,SW,231,0.0,0.0,99,0.00,,,0.00,Wunderground v.1.15,2013-07-11 06:55:00,
2013-07-11 03:00:00,64.7,64.4,29.95,SW,229,0.0,0.0,99,0.00,,,0.00,Wunderground v.1.15,2013-07-11 07:00:00,
2013-07-11 03:10:00,64.8,64.5,29.95,SW,229,0.0,0.0,99,0.00,,,0.00,Wunderground v.1.15,2013-07-11 07:10:00,
2013-07-11 03:15:00,64.8,64.5,29.95,SW,229,0.0,0.0,99,0.00,,,0.00,Wunderground v.1.15,2013-07-11 07:15:00,
2013-07-11 04:02:00,65.0,64.7,29.95,SW,226,2.0,2.0,99,0.00,,,0.00,Wunderground v.1.15,2013-07-11 08:02:00,
2013-07-11 04:10:00,65.0,64.7,29.96,SSE,151,0.0,0.0,99,0.00,,,0.00,Wunderground v.1.15,2013-07-11 08:10:00,
2013-07-11 04:15:00,65.0,64.7,29.96,SSE,151,0.0,0.0,99,0.00,,,0.00,Wunderground v.1.15,2013-07-11 08:15:00,
2013-07-11 04:20:00,65.0,64.7,29.96,SSE,151,0.0,0.0,99,0.00,,,0.00,Wunderground v.1.15,2013-07-11 08:20:00,
2013-07-11 04:25:00,64.9,64.6,29.96,SSE,151,0.0,0.0,99,0.00,,,0.00,Wunderground v.1.15,2013-07-11 08:25:00,
2013-07-11 04:30:00,64.9,64.6,29.96,SSE,151,0.0,0.0,99,0.00,,,0.00,Wunderground v.1.15,2013-07-11 08:30:00,
2013-07-11 04:35:00,64.9,64.6,29.96,SSE,151,0.0,0.0,99,0.00,,,0.00,Wunderground v.1.15,2013-07-11 08:35:00,
2013-07-11 04:45:00,64.9,64.6,29.97,SSE,152,0.0,0.0,99,0.00,,,0.00,Wunderground v.1.15,2013-07-11 08:45:00,
2013-07-11 04:50:00,65.0,64.7,29.97,SSE,152,0.0,0.0,99,0.00,,,0.00,Wunderground v.1.15,2013-07-11 08:50:00,
2013-07-11 04:55:00,65.1,64.8,29.97,SSE,151,0.0,0.0,99,0.00,,,0.00,Wunderground v.1.15,2013-07-11 08:55:00,
2013-07-11 05:00:00,65.2,64.9,29.97,SSE,151,0.0,0.0,99,0.00,,,0.00,Wunderground v.1.15,2013-07-11 09:00:00,
2013-07-11 05:10:00,65.3,65.0,29.96,SSE,151,0.0,0.0,99,0.00,,,0.00,Wunderground v.1.15,2013-07-11 09:10:00,
2013-07-11 05:15:00,65.4,65.1,29.96,SSE,153,0.0,0.0,99,0.00,,,0.00,Wunderground v.1.15,2013-07-11 09:15:00,
2013-07-11 05:25:00,65.4,65.1,29.96,SW,228,0.0,0.0,99,0.00,,,0.00,Wunderground v.1.15,2013-07-11 09:25:00,
2013-07-11 05:30:00,65.4,65.1,29.97,SW,228,0.0,0.0,99,0.00,,,0.00,Wunderground v.1.15,2013-07-11 09:30:00,
2013-07-11 05:35:00,65.4,65.1,29.97,SW,228,0.0,0.0,99,0.00,,,0.00,Wunderground v.1.15,2013-07-11 09:35:00,
2013-07-11 05:45:00,65.6,65.3,29.97,SW,228,0.0,0.0,99,0.00,,,0.00,Wunderground v.1.15,2013-07-11 09:45:00,
2013-07-11 05:50:00,65.7,65.4,29.97,SW,228,0.0,0.0,99,0.00,,,0.00,Wunderground v.1.15,2013-07-11 09:50:00,
2013-07-11 05:55:00,65.7,65.4,29.97,SW,227,0.0,0.0,99,0.00,,,0.00,Wunderground v.1.15,2013-07-11 09:55:00,
2013-07-11 06:00:00,65.7,65.4,29.97,SW,228,0.0,0.0,99,0.00,,,0.00,Wunderground v.1.15,2013-07-11 10:00:00,
2013-07-11 06:10:00,65.8,65.5,29.98,NNE,32,0.0,2.0,99,0.00,,,0.00,Wunderground v.1.15,2013-07-11 10:10:00,
2013-07-11 06:20:00,66.0,66.0,29.98,NNE,12,2.0,2.0,100,0.00,,,0.00,Wunderground v.1.15,2013-07-11 10:20:00,
2013-07-11 06:25:00,66.1,66.1,29.99,NNE,13,1.0,2.0,100,0.00,,,0.00,Wunderground v.1.15,2013-07-11 10:25:00,
2013-07-11 06:30:00,66.1,66.1,29.99,NNE,13,0.0,0.0,100,0.00,,,0.00,Wunderground v.1.15,2013-07-11 10:30:00,
2013-07-11 06:35:00,66.2,66.2,29.99,NNE,12,0.0,0.0,100,0.00,,,0.00,Wunderground v.1.15,2013-07-11 10:35:00,
2013-07-11 06:40:00,66.2,66.2,29.99,NNE,13,0.0,0.0,100,0.00,,,0.00,Wunderground v.1.15,2013-07-11 10:40:00,
2013-07-11 06:45:00,66.3,66.3,29.99,North,360,0.0,2.0,100,0.00,,,0.00,Wunderground v.1.15,2013-07-11 10:45:00,
2013-07-11 06:50:00,66.3,66.3,29.99,NNE,19,2.0,4.0,100,0.00,,,0.00,Wunderground v.1.15,2013-07-11 10:50:00,
2013-07-11 07:00:00,66.4,66.1,30.00,NE,39,2.0,2.0,99,0.00,,,0.00,Wunderground v.1.15,2013-07-11 11:00:00,
2013-07-11 07:10:00,66.3,66.0,30.00,North,357,1.0,2.0,99,0.00,,,0.00,Wunderground v.1.15,2013-07-11 11:10:00,
2013-07-11 07:15:00,66.3,66.0,30.00,NNE,22,2.0,2.0,99,0.00,,,0.00,Wunderground v.1.15,2013-07-11 11:15:00,
2013-07-11 07:20:00,66.2,65.6,30.00,NNE,32,2.0,4.0,98,0.00,,,0.00,Wunderground v.1.15,2013-07-11 11:20:00,
2013-07-11 07:30:00,66.2,65.3,30.00,North,354,2.0,2.0,97,0.00,,,0.00,Wunderground v.1.15,2013-07-11 11:30:00,
2013-07-11 07:35:00,66.3,65.1,30.00,NNE,12,2.0,4.0,96,0.00,,,0.00,Wunderground v.1.15,2013-07-11 11:35:00,
2013-07-11 07:40:00,66.6,65.4,30.00,NNE,15,2.0,3.0,96,0.00,,,0.00,Wunderground v.1.15,2013-07-11 11:40:00,
2013-07-11 07:45:00,67.3,65.8,30.00,NE,56,2.0,3.0,95,0.00,,,0.00,Wunderground v.1.15,2013-07-11 11:45:00,
2013-07-11 07:50:00,67.7,65.6,30.00,NNE,28,2.0,2.0,93,0.00,,,0.00,Wunderground v.1.15,2013-07-11 11:50:00,
2013-07-11 07:55:00,67.8,65.4,30.00,NNE,25,3.0,3.0,92,0.00,,,0.00,Wunderground v.1.15,2013-07-11 11:55:00,
2013-07-11 08:00:00,67.7,65.0,30.01,NNE,18,3.0,4.0,91,0.00,,,0.00,Wunderground v.1.15,2013-07-11 12:00:00,
2013-07-11 08:10:00,68.0,65.6,30.01,NNE,25,2.0,2.0,92,0.00,,,0.00,Wunderground v.1.15,2013-07-11 12:10:00,
2013-07-11 08:15:00,68.4,65.7,30.01,North,8,1.0,3.0,91,0.00,,,0.00,Wunderground v.1.15,2013-07-11 12:15:00,
2013-07-11 08:20:00,68.5,64.8,30.01,NNE,31,2.0,2.0,88,0.00,,,0.00,Wunderground v.1.15,2013-07-11 12:20:00,
2013-07-11 08:25:00,68.4,64.4,30.01,NE,34,4.0,4.0,87,0.00,,,0.00,Wunderground v.1.15,2013-07-11 12:25:00,
2013-07-11 08:30:00,68.4,64.4,30.01,NE,37,4.0,4.0,87,0.00,,,0.00,Wunderground v.1.15,2013-07-11 12:30:00,
2013-07-11 08:35:00,68.6,64.6,30.01,NE,36,2.0,4.0,87,0.00,,,0.00,Wunderground v.1.15,2013-07-11 12:35:00,
2013-07-11 08:40:00,69.0,64.3,30.01,NE,56,3.0,3.0,85,0.00,,,0.00,Wunderground v.1.15,2013-07-11 12:40:00,
2013-07-11 08:50:00,69.9,64.5,30.01,NE,48,3.0,3.0,83,0.00,,,0.00,Wunderground v.1.15,2013-07-11 12:50:00,
2013-07-11 08:55:00,70.0,63.9,30.02,NNE,20,3.0,3.0,81,0.00,,,0.00,Wunderground v.1.15,2013-07-11 12:55:00,
2013-07-11 09:00:00,70.0,63.9,30.02,ENE,58,4.0,4.0,81,0.00,,,0.00,Wunderground v.1.15,2013-07-11 13:00:00,
2013-07-11 09:10:00,70.9,63.7,30.01,NE,40,3.0,5.0,78,0.00,,,0.00,Wunderground v.1.15,2013-07-11 13:10:00,
2013-07-11 09:20:00,71.3,64.4,30.02,NE,51,3.0,3.0,79,0.00,,,0.00,Wunderground v.1.15,2013-07-11 13:20:00,
2013-07-11 09:25:00,71.6,64.7,30.02,NE,38,3.0,3.0,79,0.00,,,0.00,Wunderground v.1.15,2013-07-11 13:25:00,
2013-07-11 09:35:00,71.1,63.1,30.02,NNE,19,5.0,10.0,76,0.00,,,0.00,Wunderground v.1.15,2013-07-11 13:35:00,
2013-07-11 09:40:00,70.7,63.1,30.02,ENE,63,5.0,5.0,77,0.00,,,0.00,Wunderground v.1.15,2013-07-11 13:40:00,
2013-07-11 09:50:00,71.3,63.7,30.03,North,351,4.0,6.0,77,0.00,,,0.00,Wunderground v.1.15,2013-07-11 13:50:00,
2013-07-11 09:55:00,71.4,63.8,30.03,NNE,22,5.0,6.0,77,0.00,,,0.00,Wunderground v.1.15,2013-07-11 13:55:00,
2013-07-11 10:00:00,71.7,64.1,30.03,NNE,23,5.0,5.0,77,0.00,,,0.00,Wunderground v.1.15,2013-07-11 14:00:00,
2013-07-11 10:10:00,71.5,63.9,30.03,NE,38,6.0,6.0,77,0.00,,,0.00,Wunderground v.1.15,2013-07-11 14:10:00,
2013-07-11 10:20:00,71.6,63.3,30.03,NE,40,6.0,6.0,75,0.00,,,0.00,Wunderground v.1.15,2013-07-11 14:20:00,
2013-07-11 10:25:00,71.3,63.0,30.03,NNE,22,6.0,8.0,75,0.00,,,0.00,Wunderground v.1.15,2013-07-11 14:25:00,
2013-07-11 10:30:00,71.3,63.3,30.03,NNE,20,5.0,5.0,76,0.00,,,0.00,Wunderground v.1.15,2013-07-11 14:30:00,
2013-07-11 10:35:00,71.6,64.0,30.03,NNE,23,5.0,8.0,77,0.00,,,0.00,Wunderground v.1.15,2013-07-11 14:35:00,
2013-07-11 10:40:00,71.3,63.0,30.03,NE,47,6.0,6.0,75,0.00,,,0.00,Wunderground v.1.15,2013-07-11 14:40:00,
2013-07-11 10:45:00,71.7,64.1,30.03,ENE,68,5.0,6.0,77,0.00,,,0.00,Wunderground v.1.15,2013-07-11 14:45:00,
2013-07-11 10:50:00,72.5,64.5,30.03,North,359,4.0,4.0,76,0.00,,,0.00,Wunderground v.1.15,2013-07-11 14:50:00,
2013-07-11 10:55:00,72.5,64.1,30.03,NW,326,4.0,4.0,75,0.00,,,0.00,Wunderground v.1.15,2013-07-11 14:55:00,
2013-07-11 11:05:00,72.8,63.6,30.03,North,2,3.0,4.0,73,0.00,,,0.00,Wunderground v.1.15,2013-07-11 15:05:00,
2013-07-11 11:10:00,72.4,63.6,30.03,NNE,29,4.0,5.0,74,0.00,,,0.00,Wunderground v.1.15,2013-07-11 15:10:00,
2013-07-11 11:15:00,72.3,63.5,30.03,NE,39,4.0,5.0,74,0.00,,,0.00,Wunderground v.1.15,2013-07-11 15:15:00,
2013-07-11 11:20:00,72.7,64.3,30.03,NNE,32,5.0,7.0,75,0.00,,,0.00,Wunderground v.1.15,2013-07-11 15:20:00,
2013-07-11 11:25:00,73.3,64.1,30.03,NNE,29,5.0,7.0,73,0.00,,,0.00,Wunderground v.1.15,2013-07-11 15:25:00,
2013-07-11 11:30:00,73.5,63.9,30.03,NNW,335,5.0,5.0,72,0.00,,,0.00,Wunderground v.1.15,2013-07-11 15:30:00,
2013-07-11 11:40:00,73.3,63.7,30.03,NNE,32,5.0,5.0,72,0.00,,,0.00,Wunderground v.1.15,2013-07-11 15:40:00,
2013-07-11 11:45:00,73.9,63.9,30.03,WSW,249,4.0,5.0,71,0.00,,,0.00,Wunderground v.1.15,2013-07-11 15:45:00,
2013-07-11 11:50:00,73.3,64.5,30.03,NE,40,4.0,6.0,74,0.00,,,0.00,Wunderground v.1.15,2013-07-11 15:50:00,
2013-07-11 11:55:00,73.3,64.5,30.03,NNE,27,4.0,6.0,74,0.00,,,0.00,Wunderground v.1.15,2013-07-11 15:55:00,
2013-07-11 12:05:00,74.2,64.6,30.03,NNE,32,4.0,4.0,72,0.00,,,0.00,Wunderground v.1.15,2013-07-11 16:05:00,
2013-07-11 12:10:00,73.8,63.0,30.03,NNE,20,5.0,8.0,69,0.00,,,0.00,Wunderground v.1.15,2013-07-11 16:10:00,
2013-07-11 12:15:00,73.8,65.8,30.03,NE,36,4.0,8.0,76,0.00,,,0.00,Wunderground v.1.15,2013-07-11 16:15:00,
2013-07-11 12:20:00,73.8,63.4,30.03,NNE,12,4.0,4.0,70,0.00,,,0.00,Wunderground v.1.15,2013-07-11 16:20:00,
2013-07-11 12:25:00,73.2,63.2,30.03,North,351,3.0,4.0,71,0.00,,,0.00,Wunderground v.1.15,2013-07-11 16:25:00,
2013-07-11 12:35:00,74.4,64.4,30.03,North,11,2.0,4.0,71,0.00,,,0.00,Wunderground v.1.15,2013-07-11 16:35:00,
2013-07-11 12:40:00,74.6,64.2,30.03,NE,36,4.0,4.0,70,0.00,,,0.00,Wunderground v.1.15,2013-07-11 16:40:00,
2013-07-11 12:50:00,75.3,64.4,30.03,NNE,25,2.0,4.0,69,0.00,,,0.00,Wunderground v.1.15,2013-07-11 16:50:00,
2013-07-11 12:55:00,75.1,63.0,30.03,NNE,30,3.0,4.0,66,0.00,,,0.00,Wunderground v.1.15,2013-07-11 16:55:00,
2013-07-11 13:00:00,75.6,63.4,30.03,NNE,23,3.0,3.0,66,0.00,,,0.00,Wunderground v.1.15,2013-07-11 17:00:00,
2013-07-11 13:10:00,74.9,63.2,30.03,North,4,3.0,3.0,67,0.00,,,0.00,Wunderground v.1.15,2013-07-11 17:10:00,
2013-07-11 13:20:00,74.7,62.6,30.02,North,351,2.0,2.0,66,0.00,,,0.00,Wunderground v.1.15,2013-07-11 17:20:00,
2013-07-11 13:25:00,75.4,62.8,30.02,NW,317,2.0,4.0,65,0.00,,,0.00,Wunderground v.1.15,2013-07-11 17:25:00,
2013-07-11 13:30:00,75.7,62.7,30.02,SE,146,3.0,3.0,64,0.00,,,0.00,Wunderground v.1.15,2013-07-11 17:30:00,
2013-07-11 13:35:00,76.0,64.2,30.02,NE,47,4.0,5.0,67,0.00,,,0.00,Wunderground v.1.15,2013-07-11 17:35:00,
2013-07-11 13:40:00,76.0,62.9,30.02,NE,50,4.0,4.0,64,0.00,,,0.00,Wunderground v.1.15,2013-07-11 17:40:00,
2013-07-11 13:45:00,75.5,63.3,30.02,NNW,340,3.0,4.0,66,0.00,,,0.00,Wunderground v.1.15,2013-07-11 17:45:00,
2013-07-11 13:55:00,76.9,65.1,30.01,NNE,29,2.0,3.0,67,0.00,,,0.00,Wunderground v.1.15,2013-07-11 17:55:00,
2013-07-11 14:00:00,77.1,63.5,30.01,West,277,3.0,3.0,63,0.00,,,0.00,Wunderground v.1.15,2013-07-11 18:00:00,
2013-07-11 14:05:00,76.6,65.7,30.02,NE,42,4.0,7.0,69,0.00,,,0.00,Wunderground v.1.15,2013-07-11 18:05:00,
2013-07-11 14:15:00,76.4,64.2,30.02,NE,51,4.0,5.0,66,0.00,,,0.00,Wunderground v.1.15,2013-07-11 18:15:00,
2013-07-11 14:20:00,76.0,62.9,30.02,North,8,3.0,3.0,64,0.00,,,0.00,Wunderground v.1.15,2013-07-11 18:20:00,
2013-07-11 14:25:00,76.7,66.6,30.01,NE,49,2.0,3.0,71,0.00,,,0.00,Wunderground v.1.15,2013-07-11 18:25:00,
2013-07-11 14:30:00,77.2,63.6,30.01,North,9,2.0,2.0,63,0.00,,,0.00,Wunderground v.1.15,2013-07-11 18:30:00,
2013-07-11 14:35:00,77.5,63.5,30.01,NNE,23,4.0,4.0,62,0.00,,,0.00,Wunderground v.1.15,2013-07-11 18:35:00,
2013-07-11 14:40:00,77.5,63.5,30.01,NNE,19,4.0,7.0,62,0.00,,,0.00,Wunderground v.1.15,2013-07-11 18:40:00,
2013-07-11 14:50:00,77.4,64.7,30.01,NE,42,6.0,8.0,65,0.00,,,0.00,Wunderground v.1.15,2013-07-11 18:50:00,
2013-07-11 14:55:00,77.1,62.6,30.01,NE,37,6.0,8.0,61,0.00,,,0.00,Wunderground v.1.15,2013-07-11 18:55:00,
2013-07-11 15:05:00,75.8,63.2,30.02,NNW,341,2.0,4.0,65,0.00,,,0.00,Wunderground v.1.15,2013-07-11 19:05:00,
2013-07-11 15:15:00,77.5,63.5,30.01,NNE,30,2.0,3.0,62,0.00,,,0.00,Wunderground v.1.15,2013-07-11 19:15:00,
2013-07-11 15:20:00,77.7,64.5,30.01,North,5,3.0,3.0,64,0.00,,,0.00,Wunderground v.1.15,2013-07-11 19:20:00,
2013-07-11 15:25:00,77.7,63.6,30.01,South,191,4.0,4.0,62,0.00,,,0.00,Wunderground v.1.15,2013-07-11 19:25:00,
2013-07-11 15:30:00,77.8,62.3,30.01,NNW,345,3.0,3.0,59,0.00,,,0.00,Wunderground v.1.15,2013-07-11 19:30:00,
2013-07-11 15:35:00,77.8,62.8,30.01,NE,43,4.0,4.0,60,0.00,,,0.00,Wunderground v.1.15,2013-07-11 19:35:00,
2013-07-11 15:40:00,78.3,63.3,30.01,SW,225,3.0,3.0,60,0.00,,,0.00,Wunderground v.1.15,2013-07-11 19:40:00,
2013-07-11 15:45:00,78.6,63.6,30.01,North,354,3.0,3.0,60,0.00,,,0.00,Wunderground v.1.15,2013-07-11 19:45:00,
2013-07-11 15:50:00,78.6,64.0,30.02,SW,226,3.0,5.0,61,0.00,,,0.00,Wunderground v.1.15,2013-07-11 19:50:00,
2013-07-11 16:00:00,78.3,64.2,30.01,NE,39,3.0,3.0,62,0.00,,,0.00,Wunderground v.1.15,2013-07-11 20:00:00,
2013-07-11 16:05:00,78.3,63.3,30.01,North,8,3.0,3.0,60,0.00,,,0.00,Wunderground v.1.15,2013-07-11 20:05:00,
2013-07-11 16:15:00,78.1,64.0,30.01,NE,54,3.0,3.0,62,0.00,,,0.00,Wunderground v.1.15,2013-07-11 20:15:00,
2013-07-11 16:20:00,77.6,62.6,30.01,NNE,32,6.0,6.0,60,0.00,,,0.00,Wunderground v.1.15,2013-07-11 20:20:00,
2013-07-11 16:30:00,77.7,62.7,30.01,NE,42,4.0,9.0,60,0.00,,,0.00,Wunderground v.1.15,2013-07-11 20:30:00,
2013-07-11 16:35:00,77.3,61.4,30.01,NNE,25,4.0,9.0,58,0.00,,,0.00,Wunderground v.1.15,2013-07-11 20:35:00,
2013-07-11 16:40:00,77.4,61.5,30.01,NE,56,5.0,5.0,58,0.00,,,0.00,Wunderground v.1.15,2013-07-11 20:40:00,
2013-07-11 16:45:00,77.2,62.7,30.01,NNE,12,4.0,5.0,61,0.00,,,0.00,Wunderground v.1.15,2013-07-11 20:45:00,
2013-07-11 16:50:00,77.1,60.2,30.01,NNE,23,5.0,7.0,56,0.00,,,0.00,Wunderground v.1.15,2013-07-11 20:50:00,
2013-07-11 16:55:00,76.9,61.5,30.01,North,6,4.0,7.0,59,0.00,,,0.00,Wunderground v.1.15,2013-07-11 20:55:00,
2013-07-11 19:00:00,74.1,59.8,30.02,NNE,19,4.0,5.0,61,0.00,,,0.00,Wunderground v.1.15,2013-07-11 23:00:00,
2013-07-11 19:10:00,74.0,59.2,30.02,NNE,16,3.0,3.0,60,0.00,,,0.00,Wunderground v.1.15,2013-07-11 23:10:00,
2013-07-11 19:15:00,73.8,60.0,30.02,NNE,16,4.0,4.0,62,0.00,,,0.00,Wunderground v.1.15,2013-07-11 23:15:00,
2013-07-11 19:20:00,73.6,59.3,30.02,NW,312,4.0,4.0,61,0.00,,,0.00,Wunderground v.1.15,2013-07-11 23:20:00,
2013-07-11 19:30:00,73.4,58.7,30.02,NNE,23,3.0,4.0,60,0.00,,,0.00,Wunderground v.1.15,2013-07-11 23:30:00,
2013-07-11 19:35:00,73.2,59.4,30.02,NNE,33,4.0,4.0,62,0.00,,,0.00,Wunderground v.1.15,2013-07-11 23:35:00,
2013-07-11 19:45:00,73.3,59.5,30.02,NNW,337,2.0,3.0,62,0.00,,,0.00,Wunderground v.1.15,2013-07-11 23:45:00,
2013-07-11 19:50:00,73.1,59.3,30.02,NNE,23,2.0,2.0,62,0.00,,,0.00,Wunderground v.1.15,2013-07-11 23:50:00,
2013-07-11 19:55:00,73.0,58.8,30.02,NNE,13,2.0,2.0,61,0.00,,,0.00,Wunderground v.1.15,2013-07-11 23:55:00,
2013-07-11 20:00:00,72.5,60.1,30.02,North,358,2.0,2.0,65,0.00,,,0.00,Wunderground v.1.15,2013-07-12 00:00:00,
2013-07-11 20:10:00,70.5,59.0,30.02,North,11,1.0,1.0,67,0.00,,,0.00,Wunderground v.1.15,2013-07-12 00:10:00,
2013-07-11 20:20:00,68.7,60.8,30.02,North,11,0.0,0.0,76,0.00,,,0.00,Wunderground v.1.15,2013-07-12 00:20:00,
2013-07-11 20:25:00,67.5,60.4,30.02,North,10,0.0,0.0,78,0.00,,,0.00,Wunderground v.1.15,2013-07-12 00:25:00,
2013-07-11 20:30:00,66.4,60.4,30.02,North,11,0.0,0.0,81,0.00,,,0.00,Wunderground v.1.15,2013-07-12 00:30:00,
2013-07-11 20:40:00,65.2,60.2,30.02,North,11,0.0,0.0,84,0.00,,,0.00,Wunderground v.1.15,2013-07-12 00:40:00,
2013-07-11 20:45:00,64.8,59.9,30.02,North,11,0.0,0.0,84,0.00,,,0.00,Wunderground v.1.15,2013-07-12 00:45:00,
2013-07-11 20:50:00,64.3,59.7,30.02,North,11,0.0,0.0,85,0.00,,,0.00,Wunderground v.1.15,2013-07-12 00:50:00,
2013-07-11 20:55:00,63.9,59.6,30.03,North,10,0.0,0.0,86,0.00,,,0.00,Wunderground v.1.15,2013-07-12 00:55:00,
2013-07-11 23:20:00,57.0,55.9,30.04,North,11,0.0,4.0,96,0.00,,,0.00,Wunderground v.1.15,2013-07-12 03:20:00,
2013-07-11 23:25:00,57.0,55.9,30.05,North,10,0.0,4.0,96,0.00,,,0.00,Wunderground v.1.15,2013-07-12 03:25:00,
2013-07-11 23:35:00,57.1,56.3,30.04,North,11,0.0,4.0,97,0.00,,,0.00,Wunderground v.1.15,2013-07-12 03:35:00,
2013-07-11 23:40:00,57.1,56.3,30.05,North,11,0.0,4.0,97,0.00,,,0.00,Wunderground v.1.15,2013-07-12 03:40:00,
2013-07-11 23:50:00,56.9,56.1,30.05,North,11,0.0,4.0,97,0.00,,,0.00,Wunderground v.1.15,2013-07-12 03:50:00,
2013-07-11 23:55:00,57.0,56.2,30.05,North,11,0.0,4.0,97,0.00,,,0.00,Wunderground v.1.15,2013-07-12 03:55:00,